Time;durP1;ratioP1;P1;durP2;ratioP2;P2;SDS_P1;SDS_P2;PMS_P1;PMS_P2;Temp;Humidity;BMP_temperature;BMP_pressure;BME280_temperature;BME280_humidity;BME280_pressure;Samples;Min_cycle;Max_cycle;Signal;HPM_P1;HPM_P2
2022/05/24 00:01:10;;;;;;;7.90;4.23;;;;;;;12.88;67.02;100193.34;125299;1109;102510;-75
2022/05/24 00:03:43;;;;;;;6.07;3.87;;;;;;;12.87;67.43;100192.47;125331;1109;101900;-76
2022/05/24 00:06:26;;;;;;;7.47;3.95;;;;;;;12.83;66.93;100193.24;125083;1109;104278;-75
2022/05/24 00:11:45;;;;;;;6.30;3.40;;;;;;;12.73;67.13;100196.52;125165;1112;106792;-75
2022/05/24 00:15:19;;;;;;;5.90;3.33;;;;;;;12.68;67.55;100196.42;125204;1109;104313;-75
2022/05/24 00:17:12;;;;;;;4.23;3.27;;;;;;;12.64;67.27;100202.48;125387;1105;102119;-75
2022/05/24 00:22:59;;;;;;;5.37;2.80;;;;;;;12.50;67.62;100199.54;125411;1105;119588;-76
2022/05/24 00:25:42;;;;;;;7.37;3.10;;;;;;;12.43;67.57;100196.73;125435;1105;104123;-75
2022/05/24 00:28:15;;;;;;;6.30;3.30;;;;;;;12.36;68.21;100195.70;125539;1105;101783;-76
2022/05/24 00:31:29;;;;;;;5.43;3.00;;;;;;;12.29;67.88;100193.77;125456;1105;104249;-75
2022/05/24 00:33:59;;;;;;;5.43;3.37;;;;;;;12.22;68.45;100193.63;125445;1105;104245;-76
2022/05/24 00:36:28;;;;;;;6.57;3.33;;;;;;;12.18;68.19;100190.88;125699;1105;104277;-75
2022/05/24 00:38:58;;;;;;;7.43;3.47;;;;;;;12.14;68.15;100197.82;125786;1105;102008;-75
2022/05/24 00:41:45;;;;;;;7.37;3.40;;;;;;;12.11;68.33;100199.50;125429;1105;101912;-76
2022/05/24 00:44:33;;;;;;;5.27;3.47;;;;;;;12.05;68.36;100197.59;125396;1106;103470;-76
2022/05/24 00:47:35;;;;;;;6.13;3.33;;;;;;;11.99;68.66;100198.31;125513;1109;102526;-76
2022/05/24 00:50:08;;;;;;;3.87;3.13;;;;;;;11.94;69.09;100206.95;125560;1108;102148;-76
2022/05/24 00:53:07;;;;;;;6.00;3.10;;;;;;;11.90;68.70;100197.17;125478;1105;104181;-75
2022/05/24 00:55:50;;;;;;;5.03;3.17;;;;;;;11.85;69.27;100200.56;125398;1109;102311;-76
2022/05/24 00:58:37;;;;;;;5.00;2.97;;;;;;;11.79;69.34;100195.14;125419;1105;102749;-76
2022/05/24 01:01:17;;;;;;;4.97;3.07;;;;;;;11.76;69.44;100196.81;125232;1105;104230;-76
2022/05/24 01:03:45;;;;;;;6.87;3.50;;;;;;;11.72;69.60;100198.48;125350;1106;117732;-75
2022/05/24 01:06:14;;;;;;;4.80;2.90;;;;;;;11.69;69.59;100199.28;125456;1105;104235;-76
2022/05/24 01:08:45;;;;;;;7.43;3.17;;;;;;;11.66;69.53;100203.58;125417;1105;104253;-75
2022/05/24 01:11:23;;;;;;;5.13;3.43;;;;;;;11.65;69.81;100199.16;125360;1105;102091;-76
2022/05/24 01:14:24;;;;;;;4.87;3.37;;;;;;;11.62;69.84;100205.21;125430;1109;104178;-75
2022/05/24 01:16:55;;;;;;;6.27;3.70;;;;;;;11.60;69.81;100206.92;125348;1109;104105;-76
2022/05/24 01:19:41;;;;;;;6.03;3.10;;;;;;;11.56;69.58;100201.53;125390;1105;102168;-76
2022/05/24 01:23:01;;;;;;;5.70;3.20;;;;;;;11.50;69.84;100205.79;125609;1106;103504;-76
2022/05/24 01:25:54;;;;;;;6.07;3.27;;;;;;;11.49;69.83;100203.13;125333;1109;102355;-76
2022/05/24 01:28:47;;;;;;;7.60;3.30;;;;;;;11.46;69.65;100201.28;125347;1109;102551;-75
2022/05/24 01:31:19;;;;;;;7.23;3.30;;;;;;;11.43;69.77;100206.45;125429;1109;102461;-76
2022/05/24 01:36:42;;;;;;;5.90;3.37;;;;;;;11.41;69.68;100209.91;125444;1109;102141;-75
2022/05/24 01:39:12;;;;;;;7.73;3.27;;;;;;;11.35;69.93;100207.11;125454;1105;102689;-76
2022/05/24 01:41:51;;;;;;;6.43;3.50;;;;;;;11.28;70.24;100206.94;125410;1105;102296;-76
2022/05/24 01:44:25;;;;;;;5.33;3.00;;;;;;;11.22;70.06;100208.48;125452;1109;104153;-76
2022/05/24 01:47:26;;;;;;;6.33;3.10;;;;;;;11.15;70.32;100215.30;125443;1109;104140;-76
2022/05/24 01:50:21;;;;;;;5.20;2.87;;;;;;;11.09;70.56;100205.50;125456;1109;104249;-76
2022/05/24 01:56:09;;;;;;;5.07;3.10;;;;;;;11.05;70.19;100215.91;125276;1109;102434;-77
2022/05/24 01:58:48;;;;;;;4.40;3.03;;;;;;;11.02;70.21;100210.56;125467;1105;102219;-75
2022/05/24 02:01:40;;;;;;;4.20;2.87;;;;;;;11.03;70.29;100215.86;125317;1109;102622;-76
2022/05/24 02:04:09;;;;;;;5.10;3.13;;;;;;;11.02;70.27;100218.44;125364;1105;104172;-76
2022/05/24 02:06:39;;;;;;;6.53;3.37;;;;;;;11.05;70.63;100223.78;125295;1109;104179;-76
2022/05/24 02:09:12;;;;;;;5.13;3.30;;;;;;;11.05;70.42;100226.41;125422;1108;104869;-76
2022/05/24 02:11:41;;;;;;;3.98;2.77;;;;;;;11.06;70.18;100221.16;125250;1107;102097;-76
2022/05/24 02:14:17;;;;;;;5.10;3.20;;;;;;;11.10;70.34;100217.80;125344;1105;102044;-76
2022/05/24 02:17:20;;;;;;;4.50;2.97;;;;;;;11.11;70.06;100219.59;125353;1105;104120;-76
2022/05/24 02:20:12;;;;;;;4.60;3.13;;;;;;;11.07;70.56;100220.33;125630;1105;104339;-76
2022/05/24 02:22:44;;;;;;;5.50;3.20;;;;;;;11.02;70.43;100221.95;125696;1105;104199;-76
2022/05/24 02:25:20;;;;;;;4.73;2.80;;;;;;;10.99;70.44;100213.98;125451;1105;102448;-76
2022/05/24 02:28:02;;;;;;;6.57;3.40;;;;;;;10.97;70.37;100211.30;125582;1105;101901;-75
2022/05/24 02:30:37;;;;;;;5.27;3.40;;;;;;;10.96;70.74;100213.89;125627;1105;104128;-75
2022/05/24 02:33:06;;;;;;;4.60;3.30;;;;;;;10.96;70.59;100214.77;125340;1105;102496;-76
2022/05/24 02:35:36;;;;;;;5.83;3.07;;;;;;;10.99;70.61;100213.98;125566;1105;104435;-75
2022/05/24 02:38:09;;;;;;;4.47;3.20;;;;;;;11.06;70.64;100221.16;125312;1106;104231;-75
2022/05/24 02:43:47;;;;;;;5.83;3.33;;;;;;;11.12;70.59;100220.47;125263;1105;104172;-75
2022/05/24 02:46:19;;;;;;;4.67;3.30;;;;;;;11.13;70.61;100228.39;125565;1105;102276;-75
2022/05/24 02:48:50;;;;;;;8.97;3.50;;;;;;;11.12;70.84;100226.59;125262;1105;103204;-76
2022/05/24 02:51:21;;;;;;;9.70;3.50;;;;;;;11.13;70.70;100227.52;125521;1105;102203;-75
2022/05/24 02:54:10;;;;;;;6.23;3.27;;;;;;;11.14;70.56;100234.52;125399;1105;103965;-76
2022/05/24 02:56:39;;;;;;;4.60;3.30;;;;;;;11.12;70.38;100228.34;125542;1106;101947;-76
2022/05/24 02:59:18;;;;;;;7.73;3.33;;;;;;;11.12;70.71;100231.84;125590;1105;102250;-77
2022/05/24 03:02:03;;;;;;;7.90;3.23;;;;;;;11.11;70.82;100244.94;125658;1105;102633;-76
2022/05/24 03:04:34;;;;;;;7.37;3.57;;;;;;;11.09;70.83;100244.01;125556;1105;104290;-76
2022/05/24 03:09:59;;;;;;;7.87;3.60;;;;;;;11.08;70.60;100240.50;125742;1105;102244;-76
2022/05/24 03:15:33;;;;;;;4.93;3.40;;;;;;;11.06;70.87;100236.92;125673;1105;104166;-76
2022/05/24 03:18:04;;;;;;;4.60;3.20;;;;;;;11.07;70.87;100241.34;125311;1105;102002;-76
2022/05/24 03:20:33;;;;;;;5.83;3.47;;;;;;;11.11;71.09;100244.94;125410;1105;102100;-76
2022/05/24 03:23:06;;;;;;;6.13;3.67;;;;;;;11.11;71.38;100251.10;125356;1108;104185;-77
2022/05/24 03:25:39;;;;;;;4.60;3.40;;;;;;;11.12;71.00;100258.11;125229;1106;104181;-76
2022/05/24 03:28:11;;;;;;;6.23;3.13;;;;;;;11.13;70.99;100254.66;125275;1109;104191;-76
2022/05/24 03:30:54;;;;;;;4.57;3.20;;;;;;;11.17;71.17;100249.48;125264;1109;102301;-76
2022/05/24 03:33:26;;;;;;;7.92;3.22;;;;;;;11.19;71.41;100247.78;125308;1105;102333;-77
2022/05/24 03:35:55;;;;;;;5.63;3.43;;;;;;;11.19;71.56;100247.78;125411;1109;102805;-76
2022/05/24 03:38:24;;;;;;;5.50;3.60;;;;;;;11.18;71.34;100249.53;125272;1109;102839;-76
2022/05/24 03:40:53;;;;;;;7.53;3.90;;;;;;;11.20;71.64;100244.33;125323;1109;102071;-76
2022/05/24 03:43:31;;;;;;;7.00;3.90;;;;;;;11.25;71.23;100247.97;125320;1109;104250;-77
2022/05/24 03:46:05;;;;;;;5.90;3.50;;;;;;;11.28;71.68;100253.31;125369;1108;102282;-76
2022/05/24 03:48:42;;;;;;;7.63;3.70;;;;;;;11.33;71.41;100246.47;125643;1105;102307;-75
2022/05/24 03:51:12;;;;;;;7.55;3.58;;;;;;;11.34;71.54;100245.61;125527;1105;104410;-76
2022/05/24 03:53:41;;;;;;;5.30;3.40;;;;;;;11.39;71.51;100248.36;125807;1105;102030;-76
2022/05/24 03:56:09;;;;;;;5.63;3.53;;;;;;;11.43;71.34;100244.98;125783;1105;102775;-77
2022/05/24 03:58:38;;;;;;;6.47;3.50;;;;;;;11.48;71.22;100248.62;125794;1106;102246;-77
2022/05/24 04:01:18;;;;;;;7.27;3.30;;;;;;;11.54;71.47;100247.91;125780;1105;102370;-76
2022/05/24 04:03:50;;;;;;;6.85;3.83;;;;;;;11.55;71.28;100236.57;125827;1105;101897;-76
2022/05/24 04:06:29;;;;;;;5.87;3.13;;;;;;;11.65;71.67;100238.58;125386;1109;102605;-76
2022/05/24 04:09:12;;;;;;;5.90;3.43;;;;;;;11.72;71.57;100245.80;125193;1109;104817;-77
2022/05/24 04:11:42;;;;;;;6.13;3.67;;;;;;;11.76;71.51;100236.23;125370;1109;103878;-77
2022/05/24 04:14:21;;;;;;;5.83;3.30;;;;;;;11.80;71.61;100235.48;125292;1109;103043;-77
2022/05/24 04:16:52;;;;;;;8.43;3.93;;;;;;;11.81;71.77;100246.04;125355;1106;102401;-77
2022/05/24 04:19:21;;;;;;;7.03;3.60;;;;;;;11.82;71.82;100245.17;125361;1109;103040;-78
2022/05/24 04:21:50;;;;;;;5.27;3.50;;;;;;;11.86;71.56;100243.53;125394;1105;104259;-77
2022/05/24 04:24:20;;;;;;;7.50;3.97;;;;;;;11.91;71.66;100239.28;125322;1106;103122;-76
2022/05/24 04:26:51;;;;;;;6.07;3.70;;;;;;;11.98;71.92;100240.34;124800;1105;104169;-76
2022/05/24 04:29:20;;;;;;;6.53;3.93;;;;;;;12.03;71.40;100244.01;125045;1108;104304;-76
2022/05/24 04:31:49;;;;;;;8.47;4.00;;;;;;;12.09;71.56;100245.88;125368;1106;102741;-77
2022/05/24 04:34:17;;;;;;;8.30;4.10;;;;;;;12.13;71.45;100237.23;125464;1105;103430;-76
2022/05/24 04:36:47;;;;;;;5.70;3.83;;;;;;;12.15;71.53;100251.30;125406;1105;104322;-77
2022/05/24 04:39:31;;;;;;;6.73;4.20;;;;;;;12.19;71.66;100255.80;125568;1105;104575;-77
2022/05/24 04:42:23;;;;;;;5.47;3.77;;;;;;;12.21;71.63;100249.70;125430;1105;104281;-76
2022/05/24 04:44:56;;;;;;;8.80;4.20;;;;;;;12.26;71.39;100249.82;125414;1105;103010;-76
2022/05/24 04:47:33;;;;;;;8.53;3.90;;;;;;;12.36;71.65;100245.70;125249;1105;104427;-77
2022/05/24 04:50:10;;;;;;;6.30;3.93;;;;;;;12.43;71.37;100250.23;125379;1105;104172;-76
2022/05/24 04:52:43;;;;;;;7.53;4.07;;;;;;;12.50;71.66;100244.28;124826;1109;102193;-76
2022/05/24 04:55:14;;;;;;;6.87;4.17;;;;;;;12.54;71.23;100247.86;125036;1108;104232;-76
2022/05/24 04:57:43;;;;;;;7.87;3.87;;;;;;;12.57;71.52;100245.30;125112;1109;104489;-77
2022/05/24 05:00:17;;;;;;;6.73;3.73;;;;;;;12.62;71.36;100242.78;124533;1109;104411;-77
2022/05/24 05:02:47;;;;;;;6.23;4.00;;;;;;;12.71;71.49;100243.87;124390;1108;104217;-77
2022/05/24 05:05:16;;;;;;;9.20;3.97;;;;;;;12.80;71.45;100240.57;124703;1109;104175;-78
2022/05/24 05:07:47;;;;;;;8.10;4.00;;;;;;;12.85;71.28;100249.45;124722;1109;104179;-78
2022/05/24 05:10:16;;;;;;;6.73;3.87;;;;;;;12.89;70.97;100243.41;125133;1109;104218;-80
2022/05/24 05:12:47;;;;;;;5.60;3.40;;;;;;;12.96;71.07;100257.59;124919;1105;103322;-77
2022/05/24 05:15:20;;;;;;;5.40;3.70;;;;;;;13.02;71.06;100254.22;125140;1107;104171;-77
2022/05/24 05:17:48;;;;;;;6.77;4.00;;;;;;;13.08;71.20;100255.23;125311;1105;104303;-78
2022/05/24 05:20:21;;;;;;;10.57;4.23;;;;;;;13.14;70.87;100259.75;125354;1108;101798;-79
2022/05/24 05:22:49;;;;;;;7.67;4.47;;;;;;;13.21;70.99;100255.49;125480;1109;102248;-78
2022/05/24 05:25:20;;;;;;;9.03;4.53;;;;;;;13.31;71.04;100263.63;125592;1106;104349;-81
2022/05/24 05:27:54;;;;;;;6.90;4.03;;;;;;;13.41;70.86;100263.84;125538;1106;102774;-78
2022/05/24 05:33:39;;;;;;;5.63;3.57;;;;;;;13.64;70.27;100257.28;126015;1099;102098;-81
2022/05/24 05:36:08;;;;;;;7.70;4.05;;;;;;;13.76;70.45;100261.00;125943;1099;104246;-79
2022/05/24 05:38:45;;;;;;;5.77;3.80;;;;;;;13.84;70.43;100260.30;126101;1099;102673;-82
2022/05/24 05:41:19;;;;;;;6.53;3.70;;;;;;;13.95;69.96;100257.86;125954;1102;102773;-81
2022/05/24 05:43:48;;;;;;;10.10;4.50;;;;;;;14.05;69.88;100258.02;125965;1102;103389;-81
2022/05/24 05:46:19;;;;;;;8.87;4.30;;;;;;;14.14;70.71;100258.19;125715;1103;102750;-80
2022/05/24 05:48:48;;;;;;;6.70;4.07;;;;;;;14.22;69.99;100264.47;125734;1102;102430;-78
2022/05/24 05:51:33;;;;;;;8.47;4.00;;;;;;;14.31;70.27;100267.27;125899;1102;104198;-79
2022/05/24 05:54:08;;;;;;;11.33;4.07;;;;;;;14.42;70.46;100259.53;125799;1102;102420;-80
2022/05/24 05:56:42;;;;;;;6.90;3.97;;;;;;;14.54;70.28;100258.84;125550;1102;103615;-76
2022/05/24 05:59:12;;;;;;;7.90;3.93;;;;;;;14.65;69.83;100269.61;125477;1103;102964;-77
2022/05/24 06:01:45;;;;;;;9.20;4.10;;;;;;;14.74;69.14;100267.98;125677;1105;103220;-81
2022/05/24 06:04:20;;;;;;;8.53;4.40;;;;;;;14.85;69.67;100261.95;125876;1105;102567;-79
2022/05/24 06:06:49;;;;;;;12.00;4.47;;;;;;;14.95;69.20;100266.52;125621;1105;102598;-79
2022/05/24 06:09:32;;;;;;;9.13;4.20;;;;;;;15.06;69.22;100269.31;125442;1105;103295;-80
2022/05/24 06:12:05;;;;;;;9.07;3.40;;;;;;;15.16;69.11;100270.31;125537;1105;103129;-78
2022/05/24 06:14:39;;;;;;;8.90;4.10;;;;;;;15.24;69.21;100263.39;125503;1102;104150;-78
2022/05/24 06:17:08;;;;;;;8.00;3.70;;;;;;;15.30;68.64;100266.09;125603;1102;102417;-78
2022/05/24 06:19:37;;;;;;;8.07;3.80;;;;;;;15.36;67.51;100266.16;125468;1102;103445;-77
2022/05/24 06:22:06;;;;;;;6.57;3.53;;;;;;;15.43;67.32;100275.95;125374;1105;102259;-77
2022/05/24 06:25:13;;;;;;;7.30;3.83;;;;;;;15.53;67.18;100276.95;125596;1102;102948;-79
2022/05/24 06:27:53;;;;;;;;;;;;;;;15.66;67.11;100278.00;125767;1105;101803;-79
2022/05/24 06:30:28;;;;;;;7.07;3.73;;;;;;;15.75;65.95;100274.55;125605;1106;103173;-82
2022/05/24 06:33:07;;;;;;;10.60;3.58;;;;;;;15.84;65.46;100277.33;125723;1106;103995;-81
2022/05/24 06:35:55;;;;;;;9.97;3.37;;;;;;;15.94;65.12;100278.30;125829;1105;101999;-80
2022/05/24 06:38:31;;;;;;;7.53;3.60;;;;;;;16.06;64.57;100278.43;125400;1102;104225;-81
2022/05/24 06:41:09;;;;;;;7.77;3.67;;;;;;;16.16;64.35;100268.84;125446;1102;104133;-82
2022/05/24 06:44:14;;;;;;;8.30;3.40;;;;;;;16.29;64.35;100275.13;125279;1105;103576;-78
2022/05/24 06:46:46;;;;;;;4.97;3.10;;;;;;;16.41;63.92;100274.32;125284;1105;102999;-78
2022/05/24 06:49:21;;;;;;;4.07;3.17;;;;;;;16.50;63.51;100274.40;125206;1105;104204;-78
2022/05/24 06:51:50;;;;;;;7.07;3.23;;;;;;;16.62;62.18;100271.84;125176;1102;103103;-76
2022/05/24 06:54:31;;;;;;;5.30;3.00;;;;;;;16.78;61.88;100270.22;125538;1102;103095;-76
2022/05/24 07:04:09;;;;;;;5.37;3.17;;;;;;;17.23;60.56;100263.44;125653;1102;102518;-79
2022/05/24 07:06:54;;;;;;;3.77;2.93;;;;;;;17.43;59.55;100273.22;125573;1102;104200;-78
2022/05/24 07:09:31;;;;;;;5.43;3.03;;;;;;;17.64;58.99;100268.87;125544;1102;103057;-79
2022/05/24 07:12:00;;;;;;;5.10;2.90;;;;;;;17.76;59.51;100269.81;125317;1105;103495;-80
2022/05/24 07:14:35;;;;;;;5.57;3.13;;;;;;;17.86;57.95;100270.71;125172;1105;104336;-80
2022/05/24 07:17:06;;;;;;;9.63;3.37;;;;;;;18.06;57.52;100265.47;125482;1105;102258;-78
2022/05/24 07:19:38;;;;;;;4.50;3.10;;;;;;;18.22;57.70;100270.80;125789;1102;104162;-79
2022/05/24 07:22:15;;;;;;;6.97;3.57;;;;;;;18.36;56.15;100278.78;125730;1102;102763;-78
2022/05/24 07:24:49;;;;;;;6.60;3.43;;;;;;;18.48;56.65;100262.81;125566;1105;104290;-79
2022/05/24 07:27:27;;;;;;;4.30;3.00;;;;;;;18.69;55.04;100270.77;125960;1102;102411;-79
2022/05/24 07:30:04;;;;;;;6.23;3.20;;;;;;;18.86;54.11;100272.56;125847;1102;102280;-80
2022/05/24 07:32:43;;;;;;;5.83;3.30;;;;;;;18.99;54.45;100274.28;125848;1102;102101;-79
2022/05/24 07:38:31;;;;;;;5.70;3.07;;;;;;;19.36;54.19;100265.31;125778;1102;102563;-79
2022/05/24 07:47:15;;;;;;;5.33;2.67;;;;;;;19.93;52.81;100273.05;125778;1102;104204;-81
2022/05/24 07:50:05;;;;;;;4.40;3.00;;;;;;;20.16;50.37;100277.31;126125;1099;103012;-81
2022/05/24 07:52:48;;;;;;;6.07;3.10;;;;;;;20.29;50.47;100274.55;125968;1102;103147;-81
2022/05/24 07:55:26;;;;;;;7.00;2.80;;;;;;;20.38;50.91;100272.70;125883;1102;102121;-79
2022/05/24 07:58:04;;;;;;;9.57;2.83;;;;;;;20.51;49.69;100263.72;125882;1099;102612;-80
2022/05/24 08:00:49;;;;;;;7.33;2.77;;;;;;;20.69;49.22;100269.80;125869;1099;104294;-78
2022/05/24 08:03:34;;;;;;;6.80;2.97;;;;;;;21.00;47.78;100273.94;126055;1099;102958;-80
2022/05/24 08:06:47;;;;;;;7.05;2.90;;;;;;;21.14;46.79;100271.09;125592;1100;118840;-78
2022/05/24 08:09:18;;;;;;;4.93;2.70;;;;;;;21.27;45.82;100271.86;125264;1102;101992;-78
2022/05/24 08:12:14;;;;;;;2.97;2.43;;;;;;;21.43;45.33;100272.55;125165;1105;102964;-79
2022/05/24 08:14:46;;;;;;;6.40;2.80;;;;;;;21.51;45.16;100264.47;126039;1105;102045;-81
2022/05/24 08:20:16;;;;;;;6.17;2.70;;;;;;;21.78;42.31;100273.01;125645;1105;102703;-79
2022/05/24 08:22:48;;;;;;;;;;;;;;;21.92;40.66;100256.78;125550;1104;102796;-77
2022/05/24 08:25:21;;;;;;;5.80;2.93;;;;;;;22.01;42.51;100261.98;125154;1106;103592;-79
2022/05/24 08:28:07;;;;;;;9.53;2.80;;;;;;;22.13;40.95;100266.24;125428;1105;102414;-77
2022/05/24 08:30:54;;;;;;;6.70;2.60;;;;;;;22.17;41.52;100260.83;125504;1105;104188;-78
2022/05/24 08:33:28;;;;;;;6.70;2.93;;;;;;;22.26;42.03;100255.34;125251;1105;103059;-76
2022/05/24 08:36:04;;;;;;;3.13;2.43;;;;;;;22.36;41.96;100252.55;125676;1105;102179;-77
2022/05/24 08:38:58;;;;;;;6.47;3.33;;;;;;;22.47;41.87;100247.92;125188;1105;104134;-77
2022/05/24 08:41:43;;;;;;;5.40;2.90;;;;;;;22.51;40.08;100249.61;125528;1105;104195;-78
2022/05/24 08:50:44;;;;;;;4.77;2.80;;;;;;;22.74;40.53;100241.18;125311;1106;102672;-77
2022/05/24 08:53:35;;;;;;;3.80;2.77;;;;;;;22.93;40.36;100240.84;125490;1102;103087;-78
2022/05/24 08:56:31;;;;;;;5.47;2.70;;;;;;;22.70;39.07;100250.16;124923;1106;104188;-78
2022/05/24 08:59:11;;;;;;;5.03;3.00;;;;;;;22.54;37.82;100246.89;125596;1102;102973;-81
2022/05/24 09:01:48;;;;;;;5.33;3.10;;;;;;;22.49;38.78;100248.77;125499;1105;103162;-80
2022/05/24 09:04:20;;;;;;;6.77;3.00;;;;;;;22.60;38.90;100241.43;125103;1102;103182;-78
2022/05/24 09:07:06;;;;;;;5.43;2.50;;;;;;;22.66;38.43;100245.80;125517;1102;103811;-77
2022/05/24 09:09:49;;;;;;;6.10;3.07;;;;;;;22.72;38.47;100242.11;124352;1105;109596;-76
2022/05/24 09:12:37;;;;;;;5.87;3.07;;;;;;;22.84;38.69;100243.69;125212;1105;103173;-77
2022/05/24 09:15:16;;;;;;;5.13;2.80;;;;;;;23.08;38.34;100235.22;124408;1105;103685;-80
2022/05/24 09:18:18;;;;;;;7.57;3.40;;;;;;;23.29;38.16;100233.87;124916;1106;102471;-80
2022/05/24 09:20:56;;;;;;;5.97;3.00;;;;;;;23.20;37.07;100238.55;125499;1105;102950;-81
2022/05/24 09:23:31;;;;;;;5.03;3.20;;;;;;;23.13;37.69;100243.16;125616;1102;104165;-80
2022/05/24 09:26:04;;;;;;;3.83;2.70;;;;;;;23.20;37.95;100238.55;125347;1102;104105;-81
2022/05/24 09:29:13;;;;;;;3.40;2.70;;;;;;;23.08;37.06;100232.55;125348;1102;103016;-79
2022/05/24 09:32:16;;;;;;;5.13;3.07;;;;;;;22.87;37.53;100244.50;125574;1105;102900;-79
2022/05/24 09:35:01;;;;;;;3.10;2.60;;;;;;;22.90;37.44;100239.09;125833;1102;104111;-81
2022/05/24 09:37:32;;;;;;;5.47;2.60;;;;;;;23.15;36.41;100235.97;125278;1101;103252;-77
2022/05/24 09:40:18;;;;;;;3.50;2.60;;;;;;;23.36;35.79;100244.45;124974;1102;105105;-78
2022/05/24 09:42:54;;;;;;;5.80;2.77;;;;;;;23.44;36.23;100232.68;124897;1099;104261;-79
2022/05/24 09:45:36;;;;;;;6.20;2.73;;;;;;;23.51;36.60;100234.33;125251;1102;102235;-79
2022/05/24 09:48:24;;;;;;;6.27;3.23;;;;;;;23.41;36.16;100238.10;125712;1102;102118;-79
2022/05/24 09:50:58;;;;;;;7.73;3.20;;;;;;;23.36;36.53;100237.33;124926;1105;110871;-77
2022/05/24 09:53:30;;;;;;;;;;;;;;;23.22;34.85;100226.91;124927;1105;103357;-78
2022/05/24 09:56:15;;;;;;;5.03;2.63;;;;;;;23.22;36.20;100232.27;124717;1105;103160;-76
2022/05/24 10:02:42;;;;;;;6.13;3.00;;;;;;;23.45;36.35;100223.75;125409;1105;104211;-78
2022/05/24 10:05:53;;;;;;;5.70;2.60;;;;;;;23.51;35.87;100223.61;125501;1106;103030;-80
2022/05/24 10:08:26;;;;;;;6.30;2.87;;;;;;;23.65;36.05;100234.02;125544;1105;104208;-78
2022/05/24 10:11:00;;;;;;;4.23;2.83;;;;;;;23.65;35.70;100230.44;125450;1106;103566;-77
2022/05/24 10:13:54;;;;;;;4.43;2.47;;;;;;;23.64;35.88;100224.21;125327;1105;102454;-76
2022/05/24 10:16:39;;;;;;;5.95;2.80;;;;;;;23.70;35.84;100225.88;124728;1105;102804;-77
2022/05/24 10:19:55;;;;;;;7.07;2.80;;;;;;;23.89;35.63;100212.96;125332;1106;102396;-77
2022/05/24 10:22:38;;;;;;;5.13;2.87;;;;;;;24.09;35.56;100211.58;125703;1105;102796;-78
2022/05/24 10:25:24;;;;;;;2.70;2.50;;;;;;;24.27;35.47;100203.08;125583;1103;104255;-79
2022/05/24 10:28:35;;;;;;;2.93;2.53;;;;;;;24.37;35.02;100203.72;125773;1102;102866;-78
2022/05/24 10:31:11;;;;;;;;;;;;;;;24.39;33.18;100202.77;125607;1102;103225;-78
2022/05/24 10:40:06;;;;;;;5.80;2.60;;;;;;;24.49;34.21;100203.39;125809;1099;104210;-77
2022/05/24 10:42:57;;;;;;;4.43;2.63;;;;;;;24.29;34.11;100205.72;126406;1099;102288;-78
2022/05/24 10:45:58;;;;;;;5.28;2.70;;;;;;;24.10;33.29;100214.22;126210;1102;102202;-78
2022/05/24 10:48:54;;;;;;;5.60;3.10;;;;;;;23.64;34.02;100204.59;126186;1102;102095;-79
2022/05/24 10:51:48;;;;;;;10.63;3.10;;;;;;;23.25;34.11;100207.20;125978;1103;102948;-77
2022/05/24 10:54:47;;;;;;;5.73;3.00;;;;;;;23.13;34.05;100211.04;126005;1105;104017;-79
2022/05/24 10:58:14;;;;;;;7.53;2.90;;;;;;;22.85;34.10;100214.23;125942;1105;102981;-79
2022/05/24 11:00:57;;;;;;;7.00;2.90;;;;;;;22.67;34.33;100204.75;125981;1105;102597;-78
2022/05/24 11:04:06;;;;;;;7.53;2.60;;;;;;;22.63;34.04;100202.20;125939;1105;109866;-81
2022/05/24 11:07:33;;;;;;;;;;;;;;;;;;;;;
2022/05/24 11:10:51;;;;;;;5.27;2.70;;;;;;;22.76;34.00;100211.73;125868;1105;103497;-78
2022/05/24 11:13:57;;;;;;;6.27;2.70;;;;;;;22.82;34.48;100200.91;125705;1105;102906;-78
2022/05/24 11:17:11;;;;;;;4.27;2.67;;;;;;;23.01;34.47;100203.23;125887;1105;102500;-78
2022/05/24 11:20:08;;;;;;;3.23;2.50;;;;;;;23.02;33.73;100202.33;125273;1106;103507;-79
2022/05/24 11:23:10;;;;;;;6.23;2.60;;;;;;;23.15;33.92;100196.73;125730;1105;101629;-79
2022/05/24 11:25:53;;;;;;;6.20;2.72;;;;;;;23.41;34.00;100203.30;126017;1102;102976;-80
2022/05/24 11:28:32;;;;;;;5.00;2.20;;;;;;;23.63;33.67;100195.66;125910;1102;102755;-79
2022/05/24 11:31:38;;;;;;;4.63;2.70;;;;;;;23.81;33.84;100183.64;125981;1105;102923;-79
2022/05/24 11:34:21;;;;;;;2.90;2.60;;;;;;;23.92;33.23;100191.45;125855;1105;101998;-80
2022/05/24 11:37:13;;;;;;;2.77;2.40;;;;;;;23.98;32.78;100202.02;125736;1105;102779;-79
2022/05/24 11:39:51;;;;;;;3.33;2.50;;;;;;;24.11;33.10;100186.52;125217;1105;104294;-80
2022/05/24 11:42:49;;;;;;;3.60;2.50;;;;;;;24.13;32.17;100189.16;125223;1105;103800;-79
2022/05/24 11:46:03;;;;;;;6.33;2.83;;;;;;;24.14;32.30;100186.44;126025;1105;102150;-83
2022/05/24 11:49:44;;;;;;;;;;;;;;;;;;;;;
2022/05/24 11:52:50;;;;;;;4.50;2.67;;;;;;;24.15;31.92;100176.58;125498;1105;101745;-82
2022/05/24 11:55:43;;;;;;;4.80;2.70;;;;;;;24.29;32.24;100182.46;124506;1109;118055;-79
2022/05/24 11:58:41;;;;;;;5.53;2.50;;;;;;;24.52;31.62;100187.22;123926;1109;104357;-79
2022/05/24 12:01:30;;;;;;;6.20;2.80;;;;;;;24.79;31.62;100187.41;124185;1109;104246;-79
2022/05/24 12:11:11;;;;;;;4.03;2.20;;;;;;;24.81;31.01;100168.59;125180;1105;102318;-78
2022/05/24 12:14:26;;;;;;;5.00;2.30;;;;;;;24.84;30.38;100160.45;125417;1105;102400;-80
2022/05/24 12:17:33;;;;;;;5.10;2.60;;;;;;;24.96;30.45;100164.59;125482;1106;103107;-80
2022/05/24 12:20:52;;;;;;;4.90;2.53;;;;;;;25.01;30.24;100162.65;125634;1106;103078;-80
2022/05/24 12:24:09;;;;;;;4.80;2.70;;;;;;;25.14;29.36;100163.19;125497;1105;102965;-79
2022/05/24 12:27:14;;;;;;;4.93;2.50;;;;;;;25.22;29.04;100159.33;125484;1103;118324;-81
2022/05/24 12:34:02;;;;;;;5.97;2.73;;;;;;;25.21;28.82;100149.53;125833;1102;102411;-80
2022/05/24 12:36:57;;;;;;;6.00;2.57;;;;;;;25.38;29.34;100154.39;126031;1102;103563;-79
2022/05/24 12:39:36;;;;;;;3.60;2.30;;;;;;;25.46;29.16;100144.31;125893;1102;102293;-82
2022/05/24 12:45:45;;;;;;;4.97;2.50;;;;;;;25.78;28.91;100139.69;125583;1103;102747;-80
2022/05/24 12:48:54;;;;;;;;;;;;;;;;;;;;;
2022/05/24 12:51:32;;;;;;;6.20;2.10;;;;;;;25.85;28.13;100134.98;125867;1102;104267;-79
2022/05/24 12:54:40;;;;;;;3.67;2.13;;;;;;;25.87;28.01;100137.62;125794;1102;104160;-79
2022/05/24 12:57:47;;;;;;;2.50;2.30;;;;;;;25.90;27.79;100138.41;125762;1101;103116;-78
2022/05/24 13:00:44;;;;;;;5.45;2.42;;;;;;;25.76;28.38;100146.94;125870;1102;102977;-81
2022/05/24 13:03:35;;;;;;;6.97;2.47;;;;;;;25.50;28.78;100144.22;126147;1102;101862;-81
2022/05/24 13:06:53;;;;;;;3.77;2.30;;;;;;;25.25;28.49;100144.94;126189;1102;102635;-84
2022/05/24 13:13:44;;;;;;;4.63;2.47;;;;;;;24.84;28.81;100149.72;126284;1102;102795;-81
2022/05/24 13:16:32;;;;;;;4.90;2.53;;;;;;;24.54;29.07;100133.54;125964;1102;103049;-81
2022/05/24 13:19:54;;;;;;;5.70;2.77;;;;;;;24.46;29.25;100157.02;126130;1102;101760;-81
2022/05/24 13:22:39;;;;;;;4.17;2.63;;;;;;;24.29;29.03;100152.97;126281;1102;101803;-81
2022/05/24 13:25:33;;;;;;;6.57;2.70;;;;;;;24.17;29.27;100150.64;126199;1102;102150;-81
2022/05/24 13:28:20;;;;;;;5.10;2.60;;;;;;;24.23;29.46;100145.09;126209;1102;102801;-80
2022/05/24 13:33:53;;;;;;;5.03;2.40;;;;;;;24.36;29.07;100153.71;126074;1102;102529;-80
2022/05/24 13:36:44;;;;;;;6.87;2.60;;;;;;;24.40;29.28;100145.55;125837;1102;102903;-80
2022/05/24 13:39:21;;;;;;;8.35;3.00;;;;;;;24.53;29.31;100140.72;125728;1102;102481;-79
2022/05/24 13:41:59;;;;;;;3.05;2.50;;;;;;;24.57;29.15;100146.90;125609;1102;104242;-78
2022/05/24 13:44:32;;;;;;;3.07;2.30;;;;;;;24.57;28.71;100146.90;125397;1102;104092;-79